sensor_id;sensor_type;location;lat;lon;timestamp;temperature;humidity
10572;DHT22;5334;48.928;12.704;2022-10-16T00:01:22;15.50;99.90
10572;DHT22;5334;48.928;12.704;2022-10-16T00:03:48;15.50;99.90
10572;DHT22;5334;48.928;12.704;2022-10-16T00:06:16;15.50;99.90
10572;DHT22;5334;48.928;12.704;2022-10-16T00:08:43;15.50;99.90
10572;DHT22;5334;48.928;12.704;2022-10-16T00:11:17;15.40;99.90
10572;DHT22;5334;48.928;12.704;2022-10-16T00:13:46;15.40;99.90
10572;DHT22;5334;48.928;12.704;2022-10-16T00:16:13;15.40;99.90
10572;DHT22;5334;48.928;12.704;2022-10-16T00:18:39;15.40;99.90
10572;DHT22;5334;48.928;12.704;2022-10-16T00:21:11;15.40;99.90
10572;DHT22;5334;48.928;12.704;2022-10-16T00:23:37;15.40;99.90
10572;DHT22;5334;48.928;12.704;2022-10-16T00:26:09;15.40;99.90
10572;DHT22;5334;48.928;12.704;2022-10-16T00:28:35;15.40;99.90
10572;DHT22;5334;48.928;12.704;2022-10-16T00:31:10;15.30;99.90
10572;DHT22;5334;48.928;12.704;2022-10-16T00:33:37;15.30;99.90
10572;DHT22;5334;48.928;12.704;2022-10-16T00:36:04;15.20;99.90
10572;DHT22;5334;48.928;12.704;2022-10-16T00:38:30;15.20;99.90
10572;DHT22;5334;48.928;12.704;2022-10-16T00:40:56;15.20;99.90
10572;DHT22;5334;48.928;12.704;2022-10-16T00:46:10;15.20;99.90
10572;DHT22;5334;48.928;12.704;2022-10-16T00:48:38;15.10;99.90
10572;DHT22;5334;48.928;12.704;2022-10-16T00:51:06;15.20;99.90
10572;DHT22;5334;48.928;12.704;2022-10-16T00:53:32;15.20;99.90
10572;DHT22;5334;48.928;12.704;2022-10-16T00:55:59;15.20;99.90
10572;DHT22;5334;48.928;12.704;2022-10-16T00:58:24;15.20;99.90
10572;DHT22;5334;48.928;12.704;2022-10-16T01:00:50;15.10;99.90
10572;DHT22;5334;48.928;12.704;2022-10-16T01:03:25;15.10;99.90
10572;DHT22;5334;48.928;12.704;2022-10-16T01:08:54;15.00;99.90
10572;DHT22;5334;48.928;12.704;2022-10-16T01:14:53;15.00;99.90
10572;DHT22;5334;48.928;12.704;2022-10-16T01:17:26;15.00;99.90
10572;DHT22;5334;48.928;12.704;2022-10-16T01:22:20;15.00;99.90
10572;DHT22;5334;48.928;12.704;2022-10-16T01:24:49;15.10;99.90
10572;DHT22;5334;48.928;12.704;2022-10-16T01:27:28;15.10;99.90
10572;DHT22;5334;48.928;12.704;2022-10-16T01:30:01;15.10;99.90
10572;DHT22;5334;48.928;12.704;2022-10-16T01:35:07;15.00;99.90
10572;DHT22;5334;48.928;12.704;2022-10-16T01:37:48;15.00;99.90
10572;DHT22;5334;48.928;12.704;2022-10-16T01:40:19;15.00;99.90
10572;DHT22;5334;48.928;12.704;2022-10-16T01:42:53;15.00;99.90
10572;DHT22;5334;48.928;12.704;2022-10-16T01:45:21;15.00;99.90
10572;DHT22;5334;48.928;12.704;2022-10-16T01:47:49;15.00;99.90
10572;DHT22;5334;48.928;12.704;2022-10-16T01:50:18;15.00;99.90
10572;DHT22;5334;48.928;12.704;2022-10-16T01:52:48;15.10;99.90
10572;DHT22;5334;48.928;12.704;2022-10-16T01:55:18;15.10;99.90
10572;DHT22;5334;48.928;12.704;2022-10-16T01:57:47;15.10;99.90
10572;DHT22;5334;48.928;12.704;2022-10-16T02:00:16;15.00;99.90
10572;DHT22;5334;48.928;12.704;2022-10-16T02:02:45;15.10;99.90
10572;DHT22;5334;48.928;12.704;2022-10-16T02:05:18;15.00;99.90
10572;DHT22;5334;48.928;12.704;2022-10-16T02:07:45;15.10;99.90
10572;DHT22;5334;48.928;12.704;2022-10-16T02:10:11;15.10;99.90
10572;DHT22;5334;48.928;12.704;2022-10-16T02:12:40;15.10;99.90
10572;DHT22;5334;48.928;12.704;2022-10-16T02:15:07;15.10;99.90
10572;DHT22;5334;48.928;12.704;2022-10-16T02:17:33;15.10;99.90
10572;DHT22;5334;48.928;12.704;2022-10-16T02:19:59;15.00;99.90
10572;DHT22;5334;48.928;12.704;2022-10-16T02:22:33;15.00;99.90
10572;DHT22;5334;48.928;12.704;2022-10-16T02:25:14;15.00;99.90
10572;DHT22;5334;48.928;12.704;2022-10-16T02:33:03;15.00;99.90
10572;DHT22;5334;48.928;12.704;2022-10-16T02:35:30;15.00;99.90
10572;DHT22;5334;48.928;12.704;2022-10-16T02:37:57;14.90;99.90
10572;DHT22;5334;48.928;12.704;2022-10-16T02:40:23;14.90;99.90
10572;DHT22;5334;48.928;12.704;2022-10-16T02:42:53;14.90;99.90
10572;DHT22;5334;48.928;12.704;2022-10-16T02:45:21;14.90;99.90
10572;DHT22;5334;48.928;12.704;2022-10-16T02:47:47;14.90;99.90
10572;DHT22;5334;48.928;12.704;2022-10-16T02:50:13;14.90;99.90
10572;DHT22;5334;48.928;12.704;2022-10-16T02:52:39;14.90;99.90
10572;DHT22;5334;48.928;12.704;2022-10-16T02:55:05;14.90;99.90
10572;DHT22;5334;48.928;12.704;2022-10-16T02:57:31;14.90;99.90
10572;DHT22;5334;48.928;12.704;2022-10-16T02:59:57;14.80;99.90
10572;DHT22;5334;48.928;12.704;2022-10-16T03:02:23;14.80;99.90
10572;DHT22;5334;48.928;12.704;2022-10-16T03:04:49;14.80;99.90
10572;DHT22;5334;48.928;12.704;2022-10-16T03:07:15;14.80;99.90
10572;DHT22;5334;48.928;12.704;2022-10-16T03:09:40;14.80;99.90
10572;DHT22;5334;48.928;12.704;2022-10-16T03:12:06;14.70;99.90
10572;DHT22;5334;48.928;12.704;2022-10-16T03:14:32;14.70;99.90
10572;DHT22;5334;48.928;12.704;2022-10-16T03:16:58;14.70;99.90
10572;DHT22;5334;48.928;12.704;2022-10-16T03:19:24;14.70;99.90
10572;DHT22;5334;48.928;12.704;2022-10-16T03:21:49;14.70;99.90
10572;DHT22;5334;48.928;12.704;2022-10-16T03:24:15;14.70;99.90
10572;DHT22;5334;48.928;12.704;2022-10-16T03:26:41;14.70;99.90
10572;DHT22;5334;48.928;12.704;2022-10-16T03:29:06;14.70;99.90
10572;DHT22;5334;48.928;12.704;2022-10-16T03:31:32;14.70;99.90
10572;DHT22;5334;48.928;12.704;2022-10-16T03:33:58;14.70;99.90
10572;DHT22;5334;48.928;12.704;2022-10-16T03:36:24;14.60;99.90
10572;DHT22;5334;48.928;12.704;2022-10-16T03:38:50;14.60;99.90
10572;DHT22;5334;48.928;12.704;2022-10-16T03:41:15;14.60;99.90
10572;DHT22;5334;48.928;12.704;2022-10-16T03:43:41;14.50;99.90
10572;DHT22;5334;48.928;12.704;2022-10-16T03:46:07;14.50;99.90
10572;DHT22;5334;48.928;12.704;2022-10-16T03:48:32;14.40;99.90
10572;DHT22;5334;48.928;12.704;2022-10-16T03:50:58;14.40;99.90
10572;DHT22;5334;48.928;12.704;2022-10-16T03:53:24;14.40;99.90
10572;DHT22;5334;48.928;12.704;2022-10-16T03:55:50;14.30;99.90
10572;DHT22;5334;48.928;12.704;2022-10-16T03:58:16;14.20;99.90
10572;DHT22;5334;48.928;12.704;2022-10-16T04:00:45;14.20;99.90
10572;DHT22;5334;48.928;12.704;2022-10-16T04:03:13;14.10;99.90
10572;DHT22;5334;48.928;12.704;2022-10-16T04:05:39;14.10;99.90
10572;DHT22;5334;48.928;12.704;2022-10-16T04:08:05;14.10;99.90
10572;DHT22;5334;48.928;12.704;2022-10-16T04:10:31;14.10;99.90
10572;DHT22;5334;48.928;12.704;2022-10-16T04:12:56;14.10;99.90
10572;DHT22;5334;48.928;12.704;2022-10-16T04:15:25;14.10;99.90
10572;DHT22;5334;48.928;12.704;2022-10-16T04:17:51;14.00;99.90
10572;DHT22;5334;48.928;12.704;2022-10-16T04:20:17;14.00;99.90
10572;DHT22;5334;48.928;12.704;2022-10-16T04:22:44;14.00;99.90
10572;DHT22;5334;48.928;12.704;2022-10-16T04:25:10;14.00;99.90
10572;DHT22;5334;48.928;12.704;2022-10-16T04:27:37;14.00;99.90
10572;DHT22;5334;48.928;12.704;2022-10-16T04:30:03;13.90;99.90
10572;DHT22;5334;48.928;12.704;2022-10-16T04:32:29;13.90;99.90
10572;DHT22;5334;48.928;12.704;2022-10-16T04:34:54;13.90;99.90
10572;DHT22;5334;48.928;12.704;2022-10-16T04:37:26;13.90;99.90
10572;DHT22;5334;48.928;12.704;2022-10-16T04:39:53;13.90;99.90
10572;DHT22;5334;48.928;12.704;2022-10-16T04:42:20;13.90;99.90
10572;DHT22;5334;48.928;12.704;2022-10-16T04:44:46;13.90;99.90
10572;DHT22;5334;48.928;12.704;2022-10-16T04:47:12;13.90;99.90
10572;DHT22;5334;48.928;12.704;2022-10-16T04:49:38;14.00;99.90
10572;DHT22;5334;48.928;12.704;2022-10-16T04:52:04;14.00;99.90
10572;DHT22;5334;48.928;12.704;2022-10-16T04:54:30;14.00;99.90
10572;DHT22;5334;48.928;12.704;2022-10-16T04:56:56;14.00;99.90
10572;DHT22;5334;48.928;12.704;2022-10-16T04:59:22;14.00;99.90
10572;DHT22;5334;48.928;12.704;2022-10-16T05:01:48;14.10;99.90
10572;DHT22;5334;48.928;12.704;2022-10-16T05:04:14;14.10;99.90
10572;DHT22;5334;48.928;12.704;2022-10-16T05:06:40;14.10;99.90
10572;DHT22;5334;48.928;12.704;2022-10-16T05:09:06;14.10;99.90
10572;DHT22;5334;48.928;12.704;2022-10-16T05:11:32;14.10;99.90
10572;DHT22;5334;48.928;12.704;2022-10-16T05:13:57;14.10;99.90
10572;DHT22;5334;48.928;12.704;2022-10-16T05:16:23;14.10;99.90
10572;DHT22;5334;48.928;12.704;2022-10-16T05:18:49;14.10;99.90
10572;DHT22;5334;48.928;12.704;2022-10-16T05:21:16;14.00;99.90
10572;DHT22;5334;48.928;12.704;2022-10-16T05:23:42;14.00;99.90
10572;DHT22;5334;48.928;12.704;2022-10-16T05:26:07;13.90;99.90
10572;DHT22;5334;48.928;12.704;2022-10-16T05:28:34;13.90;99.90
10572;DHT22;5334;48.928;12.704;2022-10-16T05:31:07;14.00;99.90
10572;DHT22;5334;48.928;12.704;2022-10-16T05:33:33;13.90;99.90
10572;DHT22;5334;48.928;12.704;2022-10-16T05:36:03;14.00;99.90
10572;DHT22;5334;48.928;12.704;2022-10-16T05:38:29;14.00;99.90
10572;DHT22;5334;48.928;12.704;2022-10-16T05:40:55;14.00;99.90
10572;DHT22;5334;48.928;12.704;2022-10-16T05:43:22;14.00;99.90
10572;DHT22;5334;48.928;12.704;2022-10-16T05:46:20;14.00;99.90
10572;DHT22;5334;48.928;12.704;2022-10-16T05:48:45;14.00;99.90
10572;DHT22;5334;48.928;12.704;2022-10-16T05:51:13;14.10;99.90
10572;DHT22;5334;48.928;12.704;2022-10-16T05:53:39;14.10;99.90
10572;DHT22;5334;48.928;12.704;2022-10-16T05:56:06;14.10;99.90
10572;DHT22;5334;48.928;12.704;2022-10-16T05:58:34;14.30;99.90
10572;DHT22;5334;48.928;12.704;2022-10-16T06:01:24;14.20;99.90
10572;DHT22;5334;48.928;12.704;2022-10-16T06:03:53;14.20;99.90
10572;DHT22;5334;48.928;12.704;2022-10-16T06:06:24;14.20;99.90
10572;DHT22;5334;48.928;12.704;2022-10-16T06:08:52;14.10;99.90
10572;DHT22;5334;48.928;12.704;2022-10-16T06:11:20;14.10;99.90
10572;DHT22;5334;48.928;12.704;2022-10-16T06:13:54;14.10;99.90
10572;DHT22;5334;48.928;12.704;2022-10-16T06:16:20;14.20;99.90
10572;DHT22;5334;48.928;12.704;2022-10-16T06:18:46;14.20;99.90
10572;DHT22;5334;48.928;12.704;2022-10-16T06:21:15;14.30;99.90
10572;DHT22;5334;48.928;12.704;2022-10-16T06:23:41;14.60;99.90
10572;DHT22;5334;48.928;12.704;2022-10-16T06:26:12;14.90;99.90
10572;DHT22;5334;48.928;12.704;2022-10-16T06:28:39;15.20;99.90
10572;DHT22;5334;48.928;12.704;2022-10-16T06:31:07;15.60;99.90
10572;DHT22;5334;48.928;12.704;2022-10-16T06:33:33;15.80;99.90
10572;DHT22;5334;48.928;12.704;2022-10-16T06:36:06;16.00;99.90
10572;DHT22;5334;48.928;12.704;2022-10-16T06:38:32;16.20;99.90
10572;DHT22;5334;48.928;12.704;2022-10-16T06:40:58;16.20;99.90
10572;DHT22;5334;48.928;12.704;2022-10-16T06:43:24;16.10;99.90
10572;DHT22;5334;48.928;12.704;2022-10-16T06:46:00;16.20;99.90
10572;DHT22;5334;48.928;12.704;2022-10-16T06:48:27;16.60;99.90
10572;DHT22;5334;48.928;12.704;2022-10-16T06:51:03;16.80;99.90
10572;DHT22;5334;48.928;12.704;2022-10-16T06:53:33;16.80;99.90
10572;DHT22;5334;48.928;12.704;2022-10-16T06:56:10;16.60;99.90
10572;DHT22;5334;48.928;12.704;2022-10-16T06:58:36;16.40;99.90
10572;DHT22;5334;48.928;12.704;2022-10-16T07:01:03;16.30;99.90
10572;DHT22;5334;48.928;12.704;2022-10-16T07:03:29;16.30;99.90
10572;DHT22;5334;48.928;12.704;2022-10-16T07:05:54;16.30;99.90
10572;DHT22;5334;48.928;12.704;2022-10-16T07:08:20;16.40;99.90
10572;DHT22;5334;48.928;12.704;2022-10-16T07:10:45;16.30;99.90
10572;DHT22;5334;48.928;12.704;2022-10-16T07:13:11;16.20;99.90
10572;DHT22;5334;48.928;12.704;2022-10-16T07:15:39;16.20;99.90
10572;DHT22;5334;48.928;12.704;2022-10-16T07:18:05;16.00;99.90
10572;DHT22;5334;48.928;12.704;2022-10-16T07:20:31;16.00;99.90
10572;DHT22;5334;48.928;12.704;2022-10-16T07:22:57;16.00;99.90
10572;DHT22;5334;48.928;12.704;2022-10-16T07:25:23;16.20;99.90
10572;DHT22;5334;48.928;12.704;2022-10-16T07:27:48;16.40;99.90
10572;DHT22;5334;48.928;12.704;2022-10-16T07:30:14;16.80;99.90
10572;DHT22;5334;48.928;12.704;2022-10-16T07:32:40;17.20;99.90
10572;DHT22;5334;48.928;12.704;2022-10-16T07:35:06;17.40;99.90
10572;DHT22;5334;48.928;12.704;2022-10-16T07:37:32;17.10;99.90
10572;DHT22;5334;48.928;12.704;2022-10-16T07:39:58;16.80;99.90
10572;DHT22;5334;48.928;12.704;2022-10-16T07:42:23;16.60;99.90
10572;DHT22;5334;48.928;12.704;2022-10-16T07:44:49;16.60;99.90
10572;DHT22;5334;48.928;12.704;2022-10-16T07:47:14;17.00;99.90
10572;DHT22;5334;48.928;12.704;2022-10-16T07:49:40;17.20;99.90
10572;DHT22;5334;48.928;12.704;2022-10-16T07:52:06;17.30;99.90
10572;DHT22;5334;48.928;12.704;2022-10-16T07:54:32;17.50;99.90
10572;DHT22;5334;48.928;12.704;2022-10-16T07:56:57;17.50;99.90
10572;DHT22;5334;48.928;12.704;2022-10-16T07:59:23;17.30;99.90
10572;DHT22;5334;48.928;12.704;2022-10-16T08:01:49;17.10;99.90
10572;DHT22;5334;48.928;12.704;2022-10-16T08:04:15;17.10;99.90
10572;DHT22;5334;48.928;12.704;2022-10-16T08:06:41;17.30;99.90
10572;DHT22;5334;48.928;12.704;2022-10-16T08:09:08;17.70;99.90
10572;DHT22;5334;48.928;12.704;2022-10-16T08:11:34;18.10;99.90
10572;DHT22;5334;48.928;12.704;2022-10-16T08:14:00;18.50;99.90
10572;DHT22;5334;48.928;12.704;2022-10-16T08:16:25;18.70;99.90
10572;DHT22;5334;48.928;12.704;2022-10-16T08:18:51;18.70;99.90
10572;DHT22;5334;48.928;12.704;2022-10-16T08:21:21;18.80;99.90
10572;DHT22;5334;48.928;12.704;2022-10-16T08:23:49;19.00;99.90
10572;DHT22;5334;48.928;12.704;2022-10-16T08:26:15;19.30;99.90
10572;DHT22;5334;48.928;12.704;2022-10-16T08:28:41;19.20;99.90
10572;DHT22;5334;48.928;12.704;2022-10-16T08:31:12;19.10;99.90
10572;DHT22;5334;48.928;12.704;2022-10-16T08:33:40;19.10;99.90
10572;DHT22;5334;48.928;12.704;2022-10-16T08:36:06;19.30;99.90
10572;DHT22;5334;48.928;12.704;2022-10-16T08:38:33;19.30;99.90
10572;DHT22;5334;48.928;12.704;2022-10-16T08:48:54;19.30;99.90
10572;DHT22;5334;48.928;12.704;2022-10-16T08:51:28;19.60;99.90
10572;DHT22;5334;48.928;12.704;2022-10-16T08:56:39;19.70;99.90
10572;DHT22;5334;48.928;12.704;2022-10-16T08:59:09;19.50;99.90
10572;DHT22;5334;48.928;12.704;2022-10-16T09:01:42;19.30;99.90
10572;DHT22;5334;48.928;12.704;2022-10-16T09:04:52;19.10;99.90
10572;DHT22;5334;48.928;12.704;2022-10-16T09:07:41;18.90;99.90
10572;DHT22;5334;48.928;12.704;2022-10-16T09:19:09;18.70;99.90
10572;DHT22;5334;48.928;12.704;2022-10-16T09:21:42;18.90;99.90
10572;DHT22;5334;48.928;12.704;2022-10-16T09:24:20;19.50;99.90
10572;DHT22;5334;48.928;12.704;2022-10-16T09:26:47;20.00;99.90
10572;DHT22;5334;48.928;12.704;2022-10-16T09:29:14;20.20;99.90
10572;DHT22;5334;48.928;12.704;2022-10-16T09:31:40;20.30;99.90
10572;DHT22;5334;48.928;12.704;2022-10-16T09:34:24;20.10;99.90
10572;DHT22;5334;48.928;12.704;2022-10-16T09:36:56;20.20;99.90
10572;DHT22;5334;48.928;12.704;2022-10-16T09:39:22;20.30;99.90
10572;DHT22;5334;48.928;12.704;2022-10-16T09:41:48;20.50;99.90
10572;DHT22;5334;48.928;12.704;2022-10-16T09:46:49;21.00;99.90
10572;DHT22;5334;48.928;12.704;2022-10-16T09:49:26;21.20;99.90
10572;DHT22;5334;48.928;12.704;2022-10-16T09:52:11;20.80;99.90
10572;DHT22;5334;48.928;12.704;2022-10-16T09:54:38;20.70;99.90
10572;DHT22;5334;48.928;12.704;2022-10-16T09:57:13;20.80;99.90
10572;DHT22;5334;48.928;12.704;2022-10-16T09:59:48;21.40;99.90
10572;DHT22;5334;48.928;12.704;2022-10-16T10:02:16;21.70;99.90
10572;DHT22;5334;48.928;12.704;2022-10-16T10:04:49;21.50;99.90
10572;DHT22;5334;48.928;12.704;2022-10-16T10:07:26;21.30;99.90
10572;DHT22;5334;48.928;12.704;2022-10-16T10:09:53;21.10;99.90
10572;DHT22;5334;48.928;12.704;2022-10-16T10:12:25;21.20;99.90
10572;DHT22;5334;48.928;12.704;2022-10-16T10:14:53;21.50;99.90
10572;DHT22;5334;48.928;12.704;2022-10-16T10:17:25;21.70;99.90
10572;DHT22;5334;48.928;12.704;2022-10-16T10:30:05;22.50;99.90
10572;DHT22;5334;48.928;12.704;2022-10-16T10:33:18;22.30;99.90
10572;DHT22;5334;48.928;12.704;2022-10-16T10:41:38;22.90;99.90
10572;DHT22;5334;48.928;12.704;2022-10-16T10:57:30;23.50;99.90
10572;DHT22;5334;48.928;12.704;2022-10-16T11:00:23;23.30;99.90
10572;DHT22;5334;48.928;12.704;2022-10-16T11:05:54;23.30;99.90
10572;DHT22;5334;48.928;12.704;2022-10-16T11:08:29;23.40;99.90
10572;DHT22;5334;48.928;12.704;2022-10-16T11:11:24;23.40;99.90
10572;DHT22;5334;48.928;12.704;2022-10-16T11:16:31;23.80;99.90
10572;DHT22;5334;48.928;12.704;2022-10-16T11:19:14;23.90;99.90
10572;DHT22;5334;48.928;12.704;2022-10-16T11:21:48;24.10;99.90
10572;DHT22;5334;48.928;12.704;2022-10-16T11:27:16;24.20;99.90
10572;DHT22;5334;48.928;12.704;2022-10-16T11:32:30;24.00;99.90
10572;DHT22;5334;48.928;12.704;2022-10-16T11:35:14;23.90;99.90
10572;DHT22;5334;48.928;12.704;2022-10-16T11:37:46;23.90;99.90
10572;DHT22;5334;48.928;12.704;2022-10-16T11:40:31;23.90;99.90
10572;DHT22;5334;48.928;12.704;2022-10-16T11:45:38;24.20;99.90
10572;DHT22;5334;48.928;12.704;2022-10-16T11:53:16;24.30;99.90
10572;DHT22;5334;48.928;12.704;2022-10-16T11:55:43;24.30;99.90
10572;DHT22;5334;48.928;12.704;2022-10-16T12:00:53;24.70;99.90
10572;DHT22;5334;48.928;12.704;2022-10-16T12:06:20;25.40;99.90
10572;DHT22;5334;48.928;12.704;2022-10-16T12:08:49;25.40;99.90
10572;DHT22;5334;48.928;12.704;2022-10-16T12:11:35;25.70;99.90
10572;DHT22;5334;48.928;12.704;2022-10-16T12:14:17;25.80;99.90
10572;DHT22;5334;48.928;12.704;2022-10-16T12:19:25;25.60;99.90
10572;DHT22;5334;48.928;12.704;2022-10-16T12:21:55;25.40;99.90
10572;DHT22;5334;48.928;12.704;2022-10-16T12:24:38;25.40;99.90
10572;DHT22;5334;48.928;12.704;2022-10-16T12:27:06;25.10;99.90
10572;DHT22;5334;48.928;12.704;2022-10-16T12:29:33;25.10;99.90
10572;DHT22;5334;48.928;12.704;2022-10-16T12:32:00;25.20;99.90
10572;DHT22;5334;48.928;12.704;2022-10-16T12:34:44;25.60;99.90
10572;DHT22;5334;48.928;12.704;2022-10-16T12:37:29;25.70;99.90
10572;DHT22;5334;48.928;12.704;2022-10-16T12:39:57;25.40;99.90
10572;DHT22;5334;48.928;12.704;2022-10-16T12:44:53;24.70;99.90
10572;DHT22;5334;48.928;12.704;2022-10-16T12:49:57;24.40;99.90
10572;DHT22;5334;48.928;12.704;2022-10-16T12:54:59;23.50;99.90
10572;DHT22;5334;48.928;12.704;2022-10-16T13:20:10;24.30;99.90
10572;DHT22;5334;48.928;12.704;2022-10-16T13:23:02;24.10;99.90
10572;DHT22;5334;48.928;12.704;2022-10-16T13:26:02;24.20;99.90
10572;DHT22;5334;48.928;12.704;2022-10-16T13:28:32;23.90;99.90
10572;DHT22;5334;48.928;12.704;2022-10-16T13:31:00;23.70;99.90
10572;DHT22;5334;48.928;12.704;2022-10-16T13:35:55;23.00;99.90
10572;DHT22;5334;48.928;12.704;2022-10-16T13:38:26;22.70;99.90
10572;DHT22;5334;48.928;12.704;2022-10-16T13:40:56;22.40;99.90
10572;DHT22;5334;48.928;12.704;2022-10-16T13:43:26;22.30;99.90
10572;DHT22;5334;48.928;12.704;2022-10-16T13:45:54;22.20;99.90
10572;DHT22;5334;48.928;12.704;2022-10-16T13:48:20;22.20;99.90
10572;DHT22;5334;48.928;12.704;2022-10-16T13:50:46;22.20;99.90
10572;DHT22;5334;48.928;12.704;2022-10-16T13:53:15;22.10;99.90
10572;DHT22;5334;48.928;12.704;2022-10-16T13:55:40;22.10;99.90
10572;DHT22;5334;48.928;12.704;2022-10-16T13:58:13;22.00;99.90
10572;DHT22;5334;48.928;12.704;2022-10-16T14:00:40;22.00;99.90
10572;DHT22;5334;48.928;12.704;2022-10-16T14:03:14;22.00;99.90
10572;DHT22;5334;48.928;12.704;2022-10-16T14:05:52;22.00;99.90
10572;DHT22;5334;48.928;12.704;2022-10-16T14:08:19;22.10;99.90
10572;DHT22;5334;48.928;12.704;2022-10-16T14:10:51;22.30;99.90
10572;DHT22;5334;48.928;12.704;2022-10-16T14:13:22;23.00;99.90
10572;DHT22;5334;48.928;12.704;2022-10-16T14:15:51;24.30;99.90
10572;DHT22;5334;48.928;12.704;2022-10-16T14:18:23;25.50;99.90
10572;DHT22;5334;48.928;12.704;2022-10-16T14:20:50;26.30;99.90
10572;DHT22;5334;48.928;12.704;2022-10-16T14:25:51;26.60;99.90
10572;DHT22;5334;48.928;12.704;2022-10-16T14:28:18;25.90;99.90
10572;DHT22;5334;48.928;12.704;2022-10-16T14:30:55;25.60;99.90
10572;DHT22;5334;48.928;12.704;2022-10-16T14:33:34;25.40;99.90
10572;DHT22;5334;48.928;12.704;2022-10-16T14:38:34;25.70;99.90
10572;DHT22;5334;48.928;12.704;2022-10-16T14:41:01;25.80;99.90
10572;DHT22;5334;48.928;12.704;2022-10-16T14:43:38;25.80;99.90
10572;DHT22;5334;48.928;12.704;2022-10-16T14:46:12;25.60;99.90
10572;DHT22;5334;48.928;12.704;2022-10-16T14:48:43;24.90;99.90
10572;DHT22;5334;48.928;12.704;2022-10-16T14:51:15;24.50;99.90
10572;DHT22;5334;48.928;12.704;2022-10-16T14:53:41;24.60;99.90
10572;DHT22;5334;48.928;12.704;2022-10-16T14:56:21;24.60;99.90
10572;DHT22;5334;48.928;12.704;2022-10-16T14:58:48;24.90;99.90
10572;DHT22;5334;48.928;12.704;2022-10-16T15:01:15;24.90;99.90
10572;DHT22;5334;48.928;12.704;2022-10-16T15:03:40;24.80;99.90
10572;DHT22;5334;48.928;12.704;2022-10-16T15:06:13;24.50;99.90
10572;DHT22;5334;48.928;12.704;2022-10-16T15:08:40;24.20;99.90
10572;DHT22;5334;48.928;12.704;2022-10-16T15:11:18;23.80;99.90
10572;DHT22;5334;48.928;12.704;2022-10-16T15:13:44;23.30;99.90
10572;DHT22;5334;48.928;12.704;2022-10-16T15:16:16;23.00;99.90
10572;DHT22;5334;48.928;12.704;2022-10-16T15:18:42;22.80;99.90
10572;DHT22;5334;48.928;12.704;2022-10-16T15:21:13;22.60;99.90
10572;DHT22;5334;48.928;12.704;2022-10-16T15:23:45;22.60;99.90
10572;DHT22;5334;48.928;12.704;2022-10-16T15:26:11;22.50;99.90
10572;DHT22;5334;48.928;12.704;2022-10-16T15:28:37;22.40;99.90
10572;DHT22;5334;48.928;12.704;2022-10-16T15:31:04;22.20;99.90
10572;DHT22;5334;48.928;12.704;2022-10-16T15:33:30;22.00;99.90
10572;DHT22;5334;48.928;12.704;2022-10-16T15:35:59;21.90;99.90
10572;DHT22;5334;48.928;12.704;2022-10-16T15:38:30;21.80;99.90
10572;DHT22;5334;48.928;12.704;2022-10-16T15:40:56;21.50;99.90
10572;DHT22;5334;48.928;12.704;2022-10-16T15:46:09;21.10;99.90
10572;DHT22;5334;48.928;12.704;2022-10-16T15:48:36;20.90;99.90
10572;DHT22;5334;48.928;12.704;2022-10-16T15:51:05;20.70;99.90
10572;DHT22;5334;48.928;12.704;2022-10-16T15:53:31;20.70;99.90
10572;DHT22;5334;48.928;12.704;2022-10-16T15:55:57;20.60;99.90
10572;DHT22;5334;48.928;12.704;2022-10-16T15:58:23;20.60;99.90
10572;DHT22;5334;48.928;12.704;2022-10-16T16:00:57;20.60;99.90
10572;DHT22;5334;48.928;12.704;2022-10-16T16:03:22;20.60;99.90
10572;DHT22;5334;48.928;12.704;2022-10-16T16:05:48;20.50;99.90
10572;DHT22;5334;48.928;12.704;2022-10-16T16:08:14;20.40;99.90
10572;DHT22;5334;48.928;12.704;2022-10-16T16:10:40;20.30;99.90
10572;DHT22;5334;48.928;12.704;2022-10-16T16:13:06;20.20;99.90
10572;DHT22;5334;48.928;12.704;2022-10-16T16:17:58;20.10;99.90
10572;DHT22;5334;48.928;12.704;2022-10-16T16:20:23;20.00;99.90
10572;DHT22;5334;48.928;12.704;2022-10-16T16:25:15;19.90;99.90
10572;DHT22;5334;48.928;12.704;2022-10-16T16:27:41;19.80;99.90
10572;DHT22;5334;48.928;12.704;2022-10-16T16:30:07;19.80;99.90
10572;DHT22;5334;48.928;12.704;2022-10-16T16:35:02;19.60;99.90
10572;DHT22;5334;48.928;12.704;2022-10-16T16:37:28;19.50;99.90
10572;DHT22;5334;48.928;12.704;2022-10-16T16:39:53;19.40;99.90
10572;DHT22;5334;48.928;12.704;2022-10-16T16:42:21;19.20;99.90
10572;DHT22;5334;48.928;12.704;2022-10-16T16:44:48;19.10;99.90
10572;DHT22;5334;48.928;12.704;2022-10-16T16:47:13;19.10;99.90
10572;DHT22;5334;48.928;12.704;2022-10-16T16:49:39;19.00;99.90
10572;DHT22;5334;48.928;12.704;2022-10-16T16:52:05;19.00;99.90
10572;DHT22;5334;48.928;12.704;2022-10-16T16:54:31;18.90;99.90
10572;DHT22;5334;48.928;12.704;2022-10-16T16:56:57;18.80;99.90
10572;DHT22;5334;48.928;12.704;2022-10-16T16:59:23;18.70;99.90
10572;DHT22;5334;48.928;12.704;2022-10-16T17:01:49;18.60;99.90
10572;DHT22;5334;48.928;12.704;2022-10-16T17:04:16;18.50;99.90
10572;DHT22;5334;48.928;12.704;2022-10-16T17:06:42;18.50;99.90
10572;DHT22;5334;48.928;12.704;2022-10-16T17:09:08;18.40;99.90
10572;DHT22;5334;48.928;12.704;2022-10-16T17:11:35;18.40;99.90
10572;DHT22;5334;48.928;12.704;2022-10-16T17:14:01;18.30;99.90
10572;DHT22;5334;48.928;12.704;2022-10-16T17:16:32;18.20;99.90
10572;DHT22;5334;48.928;12.704;2022-10-16T17:19:10;18.10;99.90
10572;DHT22;5334;48.928;12.704;2022-10-16T17:21:37;18.10;99.90
10572;DHT22;5334;48.928;12.704;2022-10-16T17:24:03;18.00;99.90
10572;DHT22;5334;48.928;12.704;2022-10-16T17:26:30;17.90;99.90
10572;DHT22;5334;48.928;12.704;2022-10-16T17:28:58;17.90;99.90
10572;DHT22;5334;48.928;12.704;2022-10-16T17:31:29;17.80;99.90
10572;DHT22;5334;48.928;12.704;2022-10-16T17:33:57;17.80;99.90
10572;DHT22;5334;48.928;12.704;2022-10-16T17:36:23;17.80;99.90
10572;DHT22;5334;48.928;12.704;2022-10-16T17:38:50;17.80;99.90
10572;DHT22;5334;48.928;12.704;2022-10-16T17:41:20;17.80;99.90
10572;DHT22;5334;48.928;12.704;2022-10-16T17:43:47;17.70;99.90
10572;DHT22;5334;48.928;12.704;2022-10-16T17:46:15;17.70;99.90
10572;DHT22;5334;48.928;12.704;2022-10-16T17:48:43;17.70;99.90
10572;DHT22;5334;48.928;12.704;2022-10-16T17:51:12;17.60;99.90
10572;DHT22;5334;48.928;12.704;2022-10-16T17:53:38;17.60;99.90
10572;DHT22;5334;48.928;12.704;2022-10-16T17:56:09;17.60;99.90
10572;DHT22;5334;48.928;12.704;2022-10-16T17:58:35;17.50;99.90
10572;DHT22;5334;48.928;12.704;2022-10-16T18:01:03;17.40;99.90
10572;DHT22;5334;48.928;12.704;2022-10-16T18:03:35;17.40;99.90
10572;DHT22;5334;48.928;12.704;2022-10-16T18:06:01;17.40;99.90
10572;DHT22;5334;48.928;12.704;2022-10-16T18:08:28;17.40;99.90